• Join FlightAware (Why Join?)
  • Login
  • US Flag 
04:14AM EST


 

Airport Tracker/Info


-or-


 

Live Flight TrackerFlight Track Log ✈ SKW6335 ✈ 20-Apr-2013 ✈ KSAN - KLAX

Flight Track Log - Related Links

Times and Time Zones

All times are in EDT time to prevent confusion due to time zone crossing. See the SKW6335 flight status page for this flight to view local times or setup timezone preferences in your user account.

Time Position Orientation Groundspeed Altitude Reporting Facility
EDT Latitude Longitude Course Direction KTS MPH feet Rate Location/Type
07:15PM 32.8000 -117.3167 301° West 210 242 3,300  Level Southern California TRACON
07:16PM 32.8846 -117.3346 320° Northwest  Level FlightAware Approximate
07:16PM 32.8333 -117.3667 308° West 229 264 4,600  Level Southern California TRACON
07:17PM 32.9353 -117.3853 320° Northwest  Level FlightAware Approximate
07:17PM 32.8667 -117.4333 301° West 215 247 6,200  Level Southern California TRACON
07:18PM 32.9862 -117.4360 320° Northwest  Level FlightAware Approximate
07:18PM 32.9000 -117.4833 308° West 213 245 7,400  Level Southern California TRACON
07:19PM 33.0323 -117.4820 320° Northwest  Level FlightAware Approximate
07:19PM 32.9500 -117.5333 320° Northwest 225 259 8,000  Level Southern California TRACON
07:19PM 32.9519 -117.5328 13° North 220 253 8,000  Level Los Angeles Center
07:20PM 33.0056 -117.6078 310° West 243 280 8,000  Level Los Angeles Center
07:21PM 33.0506 -117.6683 312° West 245 282 8,000  Level Los Angeles Center
07:22PM 33.0972 -117.7267 314° West 244 281 8,000  Level Los Angeles Center
07:23PM 33.1475 -117.7789 319° Northwest 241 277 8,000  Level Los Angeles Center
07:24PM 33.2119 -117.8064 340° North 245 282 8,000  Level Los Angeles Center
07:25PM 33.2764 -117.8292 344° North 244 281 8,000  Level Los Angeles Center
07:26PM 33.3581 -117.8308 359° North 243 280 8,000  Level Los Angeles Center
07:27PM 33.4000 -117.8500 339° North 246 283 8,000  Level Southern California TRACON
07:28PM 33.4500 -117.9000 320° Northwest 245 282 8,000  Level Southern California TRACON
07:28PM 33.4681 -117.9233 313° West 245 282 8,000  Level Los Angeles Center
07:29PM 33.5322 -117.9506 341° North 244 281 8,000 -300 Level Los Angeles Center
07:30PM 33.5989 -117.9758 342° North 250 288 7,400 -720 Descending Los Angeles Center
07:31PM 33.6500 -118.0000 339° North 264 304 7,000 -300 Descending Southern California TRACON
07:32PM 33.7167 -118.0167 348° North 251 289 7,000  Level Southern California TRACON
07:33PM 33.7833 -118.0500 337° Northwest 266 306 7,000 -180 Level Southern California TRACON
07:34PM 33.8333 -118.0667 345° North 222 255 6,700 -840 Descending Southern California TRACON
07:35PM 33.9000 -118.0667 360° North 205 236 5,400 -1,260 Descending Southern California TRACON
07:36PM 33.9333 -118.1167 309° West 200 230 4,200 -1,140 Descending Southern California TRACON
07:36PM 33.9517 -118.1439 309° West 204 235 3,500 -960 Descending Los Angeles Center
07:37PM 33.9536 -118.2256 272° West 208 239 2,600 -900 Descending Los Angeles Center